Time;durP1;ratioP1;P1;durP2;ratioP2;P2;SDS_P1;SDS_P2;PMS_P1;PMS_P2;Temp;Humidity;BMP_temperature;BMP_pressure;BME280_temperature;BME280_humidity;BME280_pressure;Samples;Min_cycle;Max_cycle;Signal;HPM_P1;HPM_P2
2022/12/06 00:01:38;;;;;;;;;7.25;7.25;;;;;10.69;74.75;100092.56;5056941;28;45436;-73
2022/12/06 00:04:06;;;;;;;;;14.00;12.00;;;;;10.68;75.03;100096.00;5055312;28;45352;-74
2022/12/06 00:06:36;;;;;;;;;13.00;12.75;;;;;10.68;74.87;100090.78;5056645;28;45536;-74
2022/12/06 00:09:03;;;;;;;;;15.25;13.75;;;;;10.70;75.01;100089.06;5056856;28;45480;-76
2022/12/06 00:11:31;;;;;;;;;15.50;13.00;;;;;10.70;74.66;100089.06;5056758;28;45432;-74
2022/12/06 00:14:03;;;;;;;;;17.00;16.25;;;;;10.72;74.86;100090.00;5053988;28;45405;-75
2022/12/06 00:16:30;;;;;;;;;10.75;9.75;;;;;10.68;74.27;100093.38;5055494;28;45454;-71
2022/12/06 00:18:57;;;;;;;;;11.75;11.25;;;;;10.69;74.93;100095.16;5056304;28;45367;-74
2022/12/06 00:21:28;;;;;;;;;12.75;11.75;;;;;10.65;75.27;100072.44;5056513;28;45504;-75
2022/12/06 00:24:05;;;;;;;;;13.00;10.50;;;;;10.71;74.49;100083.03;5056124;28;45448;-75
2022/12/06 00:26:34;;;;;;;;;10.75;9.75;;;;;10.71;75.51;100083.03;5056288;28;45395;-74
2022/12/06 00:29:00;;;;;;;;;8.00;7.25;;;;;10.71;75.45;100083.03;5056439;28;45509;-74
2022/12/06 00:31:28;;;;;;;;;8.00;7.75;;;;;10.61;75.60;100062.78;5056347;28;45454;-75
2022/12/06 00:33:54;;;;;;;;;8.50;8.50;;;;;10.68;75.84;100059.44;5056008;28;46030;-74
2022/12/06 00:36:23;;;;;;;;;7.75;6.25;;;;;10.71;75.07;100067.34;5055975;28;46740;-74
2022/12/06 00:38:49;;;;;;;;;5.50;5.50;;;;;10.77;75.24;100075.31;5056128;28;45567;-74
2022/12/06 00:41:17;;;;;;;;;9.00;8.50;;;;;10.77;75.56;100079.66;5053688;28;45581;-75
2022/12/06 00:43:43;;;;;;;;;9.50;7.75;;;;;10.48;75.95;100033.75;5055802;28;45364;-74
2022/12/06 00:46:12;;;;;;;;;9.75;9.75;;;;;10.78;75.16;100079.69;5056594;28;45503;-73
2022/12/06 00:48:38;;;;;;;;;5.00;5.00;;;;;10.78;75.86;100074.44;5053725;28;45550;-72
2022/12/06 00:51:04;;;;;;;;;6.00;5.00;;;;;10.73;75.76;100063.91;5056520;28;45535;-76
2022/12/06 00:53:29;;;;;;;;;3.50;3.50;;;;;10.59;75.52;100033.13;5055550;28;45233;-73
2022/12/06 00:55:55;;;;;;;;;4.00;4.00;;;;;10.86;75.29;100072.00;5055902;28;45367;-76
2022/12/06 00:58:21;;;;;;;;;4.00;4.00;;;;;10.89;75.46;100066.84;5055971;28;45467;-76
2022/12/06 01:00:47;;;;;;;;;2.75;2.75;;;;;10.89;76.27;100057.28;5056211;28;45381;-76
2022/12/06 01:03:13;;;;;;;;;3.25;3.25;;;;;10.88;76.29;100060.75;5055448;28;45978;-73
2022/12/06 01:05:50;;;;;;;;;4.50;4.50;;;;;10.66;76.62;100033.25;5055553;28;45339;-76
2022/12/06 01:08:17;;;;;;;;;3.25;3.00;;;;;10.88;76.54;100065.06;5053265;28;45500;-76
2022/12/06 01:10:52;;;;;;;;;5.00;3.00;;;;;10.86;76.14;100065.06;5056014;28;45433;-76
2022/12/06 01:13:18;;;;;;;;;3.00;3.00;;;;;10.85;76.56;100059.81;5053185;28;45408;-76
2022/12/06 01:15:43;;;;;;;;;4.75;3.00;;;;;10.85;75.91;100059.81;5055439;28;45563;-74
2022/12/06 01:18:09;;;;;;;;;4.50;3.00;;;;;10.85;76.51;100058.06;5055337;28;45453;-75
2022/12/06 01:20:34;;;;;;;;;7.75;7.75;;;;;10.85;76.44;100054.56;5053369;28;45497;-76
2022/12/06 01:23:00;;;;;;;;;18.00;14.25;;;;;10.86;76.33;100049.41;5055195;28;45897;-75
2022/12/06 01:25:25;;;;;;;;;8.25;7.50;;;;;10.75;76.74;100036.09;5055424;28;45203;-76
2022/12/06 01:27:51;;;;;;;;;10.00;9.00;;;;;10.81;76.97;100050.13;5055692;28;45468;-76
2022/12/06 01:30:17;;;;;;;;;4.00;4.00;;;;;10.84;76.73;100048.47;5056874;28;45724;-75
2022/12/06 01:32:42;;;;;;;;;6.00;5.25;;;;;10.87;76.72;100048.53;5057103;28;45511;-76
2022/12/06 01:35:08;;;;;;;;;5.00;4.00;;;;;10.81;77.00;100043.16;5057129;28;45486;-75
2022/12/06 01:37:33;;;;;;;;;2.50;2.50;;;;;10.81;77.20;100048.41;5057500;28;45348;-75
2022/12/06 01:39:59;;;;;;;;;4.25;4.00;;;;;10.84;77.05;100045.88;5057273;28;45440;-76
2022/12/06 01:42:24;;;;;;;;;4.75;4.75;;;;;10.86;76.94;100049.41;5056788;28;46226;-76
2022/12/06 01:44:51;;;;;;;;;6.00;5.25;;;;;10.88;77.28;100047.69;5056768;28;45251;-74
2022/12/06 01:47:22;;;;;;;;;3.75;3.75;;;;;10.74;77.12;100025.59;5056386;28;45490;-72
2022/12/06 01:50:17;;;;;;;;;4.00;4.00;;;;;10.91;77.28;100055.56;5057120;28;46045;-75
2022/12/06 01:52:46;;;;;;;;;4.00;3.75;;;;;10.94;76.88;100060.88;5056573;28;45583;-75
2022/12/06 01:55:13;;;;;;;;;3.25;3.00;;;;;10.92;76.63;100049.50;5056774;28;45441;-75
2022/12/06 01:57:39;;;;;;;;;3.50;3.50;;;;;10.97;77.07;100060.06;5056970;28;45596;-74
2022/12/06 02:00:05;;;;;;;;;4.00;4.00;;;;;10.96;77.09;100055.66;5072903;28;45291;-75
2022/12/06 02:02:31;;;;;;;;;2.25;2.25;;;;;10.98;77.20;100058.31;5056522;28;45353;-77
2022/12/06 02:04:59;;;;;;;;;3.25;3.00;;;;;10.97;77.43;100054.81;5056462;28;45465;-75
2022/12/06 02:07:28;;;;;;;;;2.50;2.50;;;;;10.96;77.60;100058.28;5056823;28;45467;-76
2022/12/06 02:09:55;;;;;;;;;3.50;3.50;;;;;10.95;77.41;100062.63;5056997;28;45480;-74
2022/12/06 02:12:21;;;;;;;;;3.25;3.25;;;;;10.91;78.13;100066.03;5055054;28;45518;-71
2022/12/06 02:14:49;;;;;;;;;3.50;3.50;;;;;10.91;77.78;100060.81;5056331;28;45532;-75
2022/12/06 02:17:36;;;;;;;;;0.75;0.75;;;;;10.67;78.37;100018.50;5056602;28;45504;-76
2022/12/06 02:20:34;;;;;;;;;3.00;2.75;;;;;10.80;78.34;100050.97;5056841;28;45372;-75
2022/12/06 02:23:37;;;;;;;;;3.00;3.00;;;;;10.91;78.04;100066.03;5056424;28;45517;-75
2022/12/06 02:26:17;;;;;;;;;3.50;3.00;;;;;10.92;78.10;100064.28;5056401;28;45440;-76
2022/12/06 02:29:07;;;;;;;;;4.25;4.25;;;;;10.93;78.12;100073.91;5056164;28;45468;-75
2022/12/06 02:31:52;;;;;;;;;5.25;5.00;;;;;10.93;77.94;100069.56;5056497;28;45332;-76
2022/12/06 02:34:29;;;;;;;;;6.50;6.50;;;;;10.91;77.79;100060.81;5055950;28;45548;-75
2022/12/06 02:37:06;;;;;;;;;9.00;8.00;;;;;10.90;77.94;100063.38;5055966;28;45235;-76
2022/12/06 02:39:44;;;;;;;;;10.50;9.75;;;;;10.89;77.85;100064.25;5056898;28;45535;-75
2022/12/06 02:42:23;;;;;;;;;7.25;7.25;;;;;10.93;77.94;100064.31;5060447;28;45308;-76
2022/12/06 02:44:53;;;;;;;;;6.00;6.00;;;;;10.84;77.72;100038.03;5059655;28;45627;-76
2022/12/06 02:47:23;;;;;;;;;5.00;5.00;;;;;10.64;77.75;100003.63;5059475;28;45298;-76
2022/12/06 02:49:53;;;;;;;;;3.50;3.50;;;;;10.95;77.52;100051.31;5059515;28;45536;-76
2022/12/06 02:52:23;;;;;;;;;3.00;3.00;;;;;10.98;77.55;100045.25;5059747;28;45319;-75
2022/12/06 02:54:50;;;;;;;;;5.00;5.00;;;;;11.04;77.66;100051.50;5059126;28;45392;-75
2022/12/06 02:57:22;;;;;;;;;6.00;4.50;;;;;11.06;77.74;100048.88;5059199;28;45475;-75
2022/12/06 02:59:52;;;;;;;;;3.00;3.00;;;;;11.07;78.10;100050.66;5059612;28;45365;-74
2022/12/06 03:02:18;;;;;;;;;3.33;3.33;;;;;11.00;78.30;100038.31;5059708;28;45335;-75
2022/12/06 03:05:04;;;;;;;;;5.00;5.00;;;;;11.08;78.16;100048.09;5074808;28;45531;-74
2022/12/06 03:07:36;;;;;;;;;4.00;3.00;;;;;11.08;78.33;100045.47;5059308;28;45262;-75
2022/12/06 03:10:24;;;;;;;;;4.00;4.00;;;;;11.09;78.15;100038.50;5059363;28;45399;-76
2022/12/06 03:12:57;;;;;;;;;2.00;2.00;;;;;10.88;77.70;100002.38;5059467;28;45436;-75
2022/12/06 03:15:25;;;;;;;;;5.00;4.00;;;;;11.10;77.78;100035.94;5059276;28;46072;-75
2022/12/06 03:18:10;;;;;;;;;4.00;4.00;;;;;11.11;77.72;100036.81;5058825;28;45399;-75
2022/12/06 03:21:03;;;;;;;;;3.75;3.75;;;;;11.11;77.97;100035.06;5059282;28;45297;-75
2022/12/06 03:23:38;;;;;;;;;3.25;3.00;;;;;11.10;77.81;100035.03;5059547;28;45481;-75
2022/12/06 03:26:06;;;;;;;;;4.25;4.25;;;;;10.94;78.43;100012.94;5058868;28;46362;-75
2022/12/06 03:28:35;;;;;;;;;3.50;3.00;;;;;11.03;77.97;100033.16;5058876;28;45290;-75
2022/12/06 03:31:07;;;;;;;;;3.00;3.00;;;;;10.93;78.57;100014.69;5058959;28;45531;-74
2022/12/06 03:33:35;;;;;;;;;2.00;2.00;;;;;11.05;78.44;100034.06;5059083;28;45358;-76
2022/12/06 03:36:01;;;;;;;;;4.67;3.00;;;;;11.06;78.41;100031.50;5058512;28;46337;-76
2022/12/06 03:38:43;;;;;;;;;2.00;2.00;;;;;10.91;78.19;99995.47;5058426;28;45425;-75
2022/12/06 03:41:10;;;;;;;;;2.50;2.50;;;;;11.11;78.41;100023.75;5058970;28;45483;-75
2022/12/06 03:43:36;;;;;;;;;3.00;3.00;;;;;11.14;78.57;100026.38;5058844;28;45452;-75
2022/12/06 03:46:35;;;;;;;;;4.00;3.25;;;;;11.15;77.88;100029.03;5058642;28;46031;-74
2022/12/06 03:49:10;;;;;;;;;3.25;3.00;;;;;11.14;77.68;100035.13;5058715;28;45333;-76
2022/12/06 03:51:38;;;;;;;;;1.00;1.00;;;;;11.16;78.49;100022.09;5057678;28;45343;-75
2022/12/06 03:54:06;;;;;;;;;3.50;3.00;;;;;11.19;78.18;100034.34;5058957;28;45408;-75
2022/12/06 03:56:35;;;;;;;;;3.00;3.00;;;;;11.22;78.38;100040.53;5058371;28;46186;-76
2022/12/06 03:59:06;;;;;;;;;2.75;2.00;;;;;11.24;78.04;100030.06;5058363;28;45393;-75
2022/12/06 04:01:32;;;;;;;;;2.75;2.75;;;;;11.27;78.02;100027.53;5058622;28;45371;-75
2022/12/06 04:03:58;;;;;;;;;2.00;1.00;;;;;11.30;78.06;100032.78;5058667;28;45460;-76
2022/12/06 04:06:24;;;;;;;;;1.67;1.67;;;;;11.18;78.26;100002.09;5058133;28;45433;-75
2022/12/06 04:08:50;;;;;;;;;1.33;1.33;;;;;11.33;78.24;100028.50;5058220;28;45405;-75
2022/12/06 04:11:15;;;;;;;;;2.25;2.00;;;;;11.35;78.17;100023.31;5058658;28;45436;-76
2022/12/06 04:13:41;;;;;;;;;2.67;2.67;;;;;11.30;77.97;100018.00;5058783;28;45461;-75
2022/12/06 04:18:09;;;;;;;;;2.00;1.75;;;;;11.39;78.56;100032.09;5057919;28;45413;-76
2022/12/06 04:18:54;;;;;;;;;2.00;1.67;;;;;11.39;78.11;100027.75;5057845;28;45235;-72
2022/12/06 04:23:58;;;;;;;;;2.67;2.00;;;;;11.17;77.91;99982.03;5058080;28;45435;-75
2022/12/06 04:26:24;;;;;;;;;3.00;2.00;;;;;11.42;77.90;100026.91;5058101;28;46272;-76
2022/12/06 04:39:51;;;;;;;;;4.00;4.00;;;;;11.22;79.17;100017.00;5057753;28;45380;-71
2022/12/06 04:45:03;;;;;;;;;3.00;3.00;;;;;11.27;79.52;100037.97;5058023;28;45235;-76
2022/12/06 04:47:28;;;;;;;;;3.00;3.00;;;;;11.30;79.19;100040.63;5057714;28;45412;-76
2022/12/06 04:49:54;;;;;;;;;2.33;2.00;;;;;11.31;79.04;100040.66;5057609;28;45365;-76
2022/12/06 04:52:19;;;;;;;;;3.00;3.00;;;;;11.18;79.32;100015.16;5057704;28;45330;-73
2022/12/06 04:54:46;;;;;;;;;2.00;2.00;;;;;11.35;78.84;100032.03;5056835;28;45394;-77
2022/12/06 04:57:13;;;;;;;;;1.00;1.00;;;;;11.34;79.00;100035.50;5057596;28;46207;-76
2022/12/06 04:59:41;;;;;;;;;5.50;3.75;;;;;10.66;79.16;99914.84;5057577;28;45595;-77
2022/12/06 05:02:11;;;;;;;;;4.75;3.00;;;;;11.29;79.15;100033.66;5057432;28;45494;-76
2022/12/06 05:04:36;;;;;;;;;1.50;1.50;;;;;11.26;78.71;100036.19;5057543;28;45401;-75
2022/12/06 05:07:02;;;;;;;;;2.00;2.00;;;;;11.10;78.43;100003.66;5057216;28;46171;-76
2022/12/06 05:09:28;;;;;;;;;2.25;2.25;;;;;11.18;79.12;100023.00;5057353;28;45325;-76
2022/12/06 05:11:53;;;;;;;;;2.75;2.00;;;;;11.33;78.72;100040.72;5057531;28;45357;-75
2022/12/06 05:14:19;;;;;;;;;2.00;2.00;;;;;11.37;78.37;100039.91;5058129;28;45912;-77
2022/12/06 05:16:45;;;;;;;;;2.00;2.00;;;;;11.39;78.17;100042.56;5057436;28;46041;-77
2022/12/06 05:19:12;;;;;;;;;1.50;1.50;;;;;11.40;78.13;100037.38;5057270;28;45235;-76
2022/12/06 05:21:38;;;;;;;;;3.00;3.00;;;;;11.40;78.21;100037.38;5057319;28;45325;-76
2022/12/06 05:24:04;;;;;;;;;1.00;1.00;;;;;11.42;78.19;100040.88;5057283;28;45604;-76
2022/12/06 05:26:29;;;;;;;;;4.00;3.00;;;;;11.44;78.11;100046.13;5057123;28;45593;-76
2022/12/06 05:28:56;;;;;;;;;2.00;2.00;;;;;11.48;78.00;100042.72;5057034;28;45325;-76
2022/12/06 05:31:22;;;;;;;;;2.00;1.00;;;;;11.49;78.14;100034.91;5057398;28;45448;-72
2022/12/06 05:33:49;;;;;;;;;2.25;2.25;;;;;11.51;77.71;100035.81;5057873;28;45226;-76
2022/12/06 05:36:20;;;;;;;;;2.00;2.00;;;;;11.54;77.83;100032.38;5057170;28;45957;-76
2022/12/06 05:38:47;;;;;;;;;3.00;2.00;;;;;11.55;77.53;100034.13;5057328;28;45396;-76
2022/12/06 05:41:12;;;;;;;;;2.00;2.00;;;;;11.55;77.85;100035.00;5057736;28;45266;-76
2022/12/06 05:43:38;;;;;;;;;3.00;3.00;;;;;11.37;77.36;99999.81;5057201;28;45475;-76
2022/12/06 05:46:04;;;;;;;;;2.00;2.00;;;;;11.59;77.41;100033.34;5056858;28;45483;-76
2022/12/06 05:48:30;;;;;;;;;2.25;2.25;;;;;11.57;77.55;100032.44;5056685;28;45295;-75
2022/12/06 05:50:56;;;;;;;;;3.75;3.25;;;;;11.50;77.37;100027.97;5056722;28;45475;-76
2022/12/06 05:53:22;;;;;;;;;2.33;2.00;;;;;11.58;77.17;100042.06;5057105;28;45471;-76
2022/12/06 05:55:47;;;;;;;;;2.00;2.00;;;;;11.59;77.25;100035.94;5056978;28;46052;-76
2022/12/06 05:58:14;;;;;;;;;56.25;47.00;;;;;11.60;77.19;100035.09;5056486;28;45297;-76
2022/12/06 06:00:40;;;;;;;;;10.50;10.25;;;;;11.48;77.36;100016.56;5057158;28;45300;-77
2022/12/06 06:03:06;;;;;;;;;24.25;22.00;;;;;11.40;77.13;100002.47;5058053;28;45405;-77
2022/12/06 06:05:32;;;;;;;;;11.50;10.75;;;;;11.40;77.32;100002.47;5056695;28;46073;-76
2022/12/06 06:07:58;;;;;;;;;7.75;7.75;;;;;11.62;77.12;100040.34;5056771;28;45443;-76
2022/12/06 06:10:24;;;;;;;;;9.00;7.25;;;;;11.64;76.99;100049.09;5056870;28;45490;-72
2022/12/06 06:12:49;;;;;;;;;5.50;5.50;;;;;11.51;76.98;100020.13;5058505;28;45234;-76
2022/12/06 06:15:16;;;;;;;;;12.50;11.25;;;;;11.67;77.23;100050.03;5058039;28;45910;-76
2022/12/06 06:17:42;;;;;;;;;8.50;8.00;;;;;11.70;77.03;100046.63;5060218;28;45417;-75
2022/12/06 06:20:09;;;;;;;;;7.75;6.75;;;;;11.68;77.00;100051.81;5060052;28;45526;-76
2022/12/06 06:22:36;;;;;;;;;26.00;24.00;;;;;11.72;76.89;100061.47;5060185;28;45381;-76
2022/12/06 06:25:03;;;;;;;;;26.75;26.00;;;;;11.74;76.91;100057.16;5059862;28;45398;-76
2022/12/06 06:27:33;;;;;;;;;15.50;13.75;;;;;11.76;77.00;100054.56;5059671;28;45297;-76
2022/12/06 06:29:59;;;;;;;;;58.00;46.25;;;;;11.62;76.99;100036.00;5059388;28;45582;-76
2022/12/06 06:32:24;;;;;;;;;40.00;34.00;;;;;11.78;76.89;100059.81;5059663;28;45421;-69
2022/12/06 06:34:50;;;;;;;;;21.25;19.00;;;;;11.78;77.10;100062.44;5059689;28;45447;-70
2022/12/06 06:37:15;;;;;;;;;15.00;13.50;;;;;11.77;76.90;100072.03;5059382;28;45410;-74
2022/12/06 06:39:41;;;;;;;;;35.50;33.25;;;;;11.80;77.24;100064.22;5059055;28;45722;-74
2022/12/06 06:42:07;;;;;;;;;36.00;33.25;;;;;11.80;77.25;100061.63;5059409;28;45274;-74
2022/12/06 06:44:32;;;;;;;;;27.00;24.25;;;;;11.81;77.30;100065.97;5058755;28;45466;-75
2022/12/06 06:46:58;;;;;;;;;35.00;32.50;;;;;11.80;77.19;100060.72;5059300;28;45498;-74
2022/12/06 06:49:23;;;;;;;;;13.25;13.25;;;;;11.83;76.76;100063.41;5059775;28;45357;-76
2022/12/06 06:51:49;;;;;;;;;39.75;36.25;;;;;11.78;76.81;100050.25;5058921;28;45460;-75
2022/12/06 06:54:15;;;;;;;;;93.33;85.00;;;;;11.89;76.64;100060.91;5056629;28;45386;-75
2022/12/06 06:56:41;;;;;;;;;23.50;21.25;;;;;11.86;76.61;100055.63;5057640;28;45361;-71
2022/12/06 06:59:07;;;;;;;;;17.25;15.50;;;;;11.90;76.58;100067.94;5057587;28;45357;-74
2022/12/06 07:01:32;;;;;;;;;6.75;6.75;;;;;11.89;77.08;100074.88;5058678;28;45405;-75
2022/12/06 07:03:58;;;;;;;;;6.33;5.00;;;;;11.88;76.92;100073.09;5058372;28;45433;-75
2022/12/06 07:06:23;;;;;;;;;5.00;5.00;;;;;11.87;76.82;100075.69;5058978;28;45386;-75
2022/12/06 07:08:49;;;;;;;;;5.00;5.00;;;;;11.88;76.81;100072.22;5058432;28;45492;-74
2022/12/06 07:11:14;;;;;;;;;6.00;5.00;;;;;11.88;77.32;100073.09;5058801;28;45500;-75
2022/12/06 07:13:42;;;;;;;;;10.00;7.00;;;;;11.90;76.90;100074.03;5058158;28;45942;-70
2022/12/06 07:16:13;;;;;;;;;20.50;18.50;;;;;11.70;77.19;100052.72;5058464;28;45524;-75
2022/12/06 07:18:38;;;;;;;;;24.25;23.50;;;;;11.88;77.24;100073.09;5058270;28;45426;-75
2022/12/06 07:21:07;;;;;;;;;40.25;35.00;;;;;11.93;76.46;100079.31;5058620;28;45566;-75
2022/12/06 07:23:33;;;;;;;;;30.00;29.50;;;;;11.95;76.77;100084.56;5058180;28;45541;-74
2022/12/06 07:26:10;;;;;;;;;33.50;30.00;;;;;11.94;76.38;100080.22;5058702;28;45361;-75
2022/12/06 07:28:41;;;;;;;;;38.00;33.25;;;;;11.90;77.15;100089.75;5056822;28;46695;-74
2022/12/06 07:31:11;;;;;;;;;47.50;39.00;;;;;11.86;77.19;100098.34;5058066;28;45503;-75
2022/12/06 07:33:37;;;;;;;;;15.00;14.00;;;;;11.78;77.56;100076.41;5058635;28;46266;-75
2022/12/06 07:36:03;;;;;;;;;17.50;16.75;;;;;11.81;77.82;100088.66;5058038;28;45340;-76
2022/12/06 07:38:29;;;;;;;;;18.25;17.25;;;;;11.82;77.73;100093.94;5058388;28;45452;-77
2022/12/06 07:41:00;;;;;;;;;30.00;27.25;;;;;11.78;77.85;100096.44;5058308;28;45246;-74
2022/12/06 07:46:10;;;;;;;;;78.00;64.33;;;;;11.88;77.66;100111.47;5057940;28;45389;-73
2022/12/06 07:48:36;;;;;;;;;54.50;45.25;;;;;11.90;77.30;100115.91;5056972;28;45499;-76
2022/12/06 07:51:05;;;;;;;;;29.00;29.00;;;;;11.98;77.34;100112.53;5058401;28;45512;-75
2022/12/06 07:53:31;;;;;;;;;18.00;17.00;;;;;12.04;76.79;100115.28;5057355;28;45577;-74
2022/12/06 07:55:56;;;;;;;;;13.75;13.00;;;;;12.09;76.83;100114.47;5056705;28;45457;-75
2022/12/06 07:58:22;;;;;;;;;8.50;6.50;;;;;12.15;76.34;100105.84;5057537;28;45608;-74
2022/12/06 08:00:47;;;;;;;;;17.75;13.00;;;;;12.22;76.34;100112.09;5056513;28;45211;-74
2022/12/06 08:03:13;;;;;;;;;6.75;5.50;;;;;12.28;75.93;100107.81;5055980;28;46370;-72
2022/12/06 08:05:39;;;;;;;;;4.00;4.00;;;;;12.34;75.63;100101.81;5057172;28;46032;-68
2022/12/06 08:08:05;;;;;;;;;2.33;2.00;;;;;12.41;74.95;100103.63;5056833;28;45459;-70
2022/12/06 08:10:31;;;;;;;;;2.00;2.00;;;;;12.26;74.85;100075.47;5057095;28;45361;-69
2022/12/06 08:12:57;;;;;;;;;2.00;2.00;;;;;12.53;74.40;100106.47;5057179;28;46268;-69
2022/12/06 08:15:23;;;;;;;;;4.00;2.33;;;;;12.58;74.05;100114.38;5056179;28;45413;-69
2022/12/06 08:17:48;;;;;;;;;2.00;2.00;;;;;12.54;73.83;100102.97;5056207;28;45409;-74
2022/12/06 08:20:14;;;;;;;;;2.00;2.00;;;;;12.68;73.54;100118.91;5055737;28;45489;-73
2022/12/06 08:22:40;;;;;;;;;3.00;3.00;;;;;12.74;73.35;100120.72;5055840;28;45492;-73
2022/12/06 08:25:06;;;;;;;;;3.00;3.00;;;;;12.77;72.92;100120.75;5055984;28;45467;-74
2022/12/06 08:27:32;;;;;;;;;3.00;2.33;;;;;12.84;72.59;100119.13;5056494;28;45388;-71
2022/12/06 08:29:57;;;;;;;;;3.00;3.00;;;;;12.87;72.35;100124.41;5057843;28;45304;-74
2022/12/06 08:32:23;;;;;;;;;3.00;3.00;;;;;12.91;71.65;100129.72;5057527;28;46141;-74
2022/12/06 08:34:48;;;;;;;;;3.00;2.67;;;;;12.94;71.66;100131.50;5057837;28;45491;-75
2022/12/06 08:37:14;;;;;;;;;2.33;2.33;;;;;12.96;71.10;100121.03;5057051;28;45481;-75
2022/12/06 08:39:39;;;;;;;;;4.00;3.33;;;;;13.03;71.24;100133.34;5073505;28;45569;-74
2022/12/06 08:42:06;;;;;;;;;4.00;4.00;;;;;13.04;70.74;100132.50;5057667;28;45394;-74
2022/12/06 08:44:32;;;;;;;;;3.00;2.00;;;;;13.03;71.10;100135.97;5057618;28;45420;-73
2022/12/06 08:47:00;;;;;;;;;2.00;2.00;;;;;13.09;70.80;100136.03;5058142;28;45376;-75
2022/12/06 08:49:28;;;;;;;;;3.33;3.00;;;;;13.10;70.26;100136.06;5058059;28;45343;-73
2022/12/06 08:51:53;;;;;;;;;3.00;3.00;;;;;13.13;70.49;100140.50;5073044;28;45500;-74
2022/12/06 08:54:22;;;;;;;;;3.00;3.00;;;;;13.20;70.01;100144.06;5056010;28;45273;-75
2022/12/06 08:56:48;;;;;;;;;3.00;3.00;;;;;13.26;69.74;100138.91;5057507;28;45576;-75
2022/12/06 08:59:14;;;;;;;;;2.00;2.00;;;;;13.32;69.73;100150.38;5057525;28;45467;-68
2022/12/06 09:01:40;;;;;;;;;4.00;3.67;;;;;13.38;69.79;100146.94;5055662;28;45502;-74
2022/12/06 09:04:07;;;;;;;;;2.67;2.67;;;;;13.46;68.80;100150.53;5057123;28;45500;-75
2022/12/06 09:06:35;;;;;;;;;6.67;4.00;;;;;13.37;69.00;100111.09;5057458;28;45207;-74
2022/12/06 09:09:01;;;;;;;;;6.00;5.00;;;;;13.67;68.67;100152.56;5057734;28;45825;-69
2022/12/06 09:11:26;;;;;;;;;7.00;7.00;;;;;13.78;68.59;100143.91;5057464;28;46129;-75
2022/12/06 09:13:52;;;;;;;;;0.67;0.67;;;;;13.89;68.65;100152.78;5057276;28;45408;-75
2022/12/06 09:16:20;;;;;;;;;7.00;5.67;;;;;13.96;67.97;100154.59;5057402;28;45482;-75
2022/12/06 09:18:46;;;;;;;;;6.25;6.25;;;;;14.01;67.86;100155.53;5057535;28;45532;-75
2022/12/06 09:21:18;;;;;;;;;6.00;5.25;;;;;14.05;67.90;100159.06;5056922;28;45494;-75
2022/12/06 09:23:44;;;;;;;;;5.00;4.00;;;;;13.95;68.00;100142.34;5056875;28;45575;-75
2022/12/06 09:26:10;;;;;;;;;5.00;4.00;;;;;14.09;67.95;100176.63;5057128;28;45554;-75
2022/12/06 09:28:37;;;;;;;;;6.50;5.25;;;;;13.89;67.88;100144.91;5057169;28;45512;-74
2022/12/06 09:31:04;;;;;;;;;4.00;4.00;;;;;14.05;67.46;100167.81;5056926;28;45585;-73
2022/12/06 09:33:30;;;;;;;;;7.67;6.67;;;;;14.08;67.65;100175.72;5056985;28;45445;-75
2022/12/06 09:35:58;;;;;;;;;4.00;4.00;;;;;14.13;67.55;100175.78;5056801;28;45524;-75
2022/12/06 09:38:28;;;;;;;;;4.00;4.00;;;;;14.09;66.82;100159.09;5056758;28;45357;-75
2022/12/06 09:41:09;;;;;;;;;7.00;6.33;;;;;14.28;66.71;100170.66;5056416;28;45496;-74
2022/12/06 09:43:43;;;;;;;;;6.00;6.00;;;;;14.46;66.52;100177.81;5056451;28;45399;-74
2022/12/06 09:46:50;;;;;;;;;7.33;7.33;;;;;14.60;66.21;100174.44;5056508;28;45412;-72
2022/12/06 09:49:38;;;;;;;;;6.00;5.00;;;;;14.60;65.70;100153.41;5022426;28;45570;-72
2022/12/06 09:52:24;;;;;;;;;5.00;2.67;;;;;14.88;65.20;100176.41;5059816;28;45251;-69
2022/12/06 09:55:11;;;;;;;;;6.00;5.00;;;;;15.05;64.67;100180.88;5059777;28;45518;-74
2022/12/06 09:58:08;;;;;;;;;11.00;10.00;;;;;15.34;64.18;100182.78;5059885;28;45252;-73
2022/12/06 10:00:44;;;;;;;;;6.33;5.00;;;;;15.64;63.55;100182.03;5059225;28;45297;-74
2022/12/06 10:03:16;;;;;;;;;5.00;4.67;;;;;15.89;62.95;100189.16;5059888;28;46195;-74
2022/12/06 10:05:41;;;;;;;;;5.00;4.00;;;;;16.03;62.22;100183.91;5059838;28;45489;-74
2022/12/06 10:08:35;;;;;;;;;30.00;26.25;;;;;16.14;62.08;100183.09;5059957;28;45290;-75
2022/12/06 10:11:32;;;;;;;;;23.75;19.75;;;;;16.28;61.50;100190.09;5060331;28;45472;-74
2022/12/06 10:14:19;;;;;;;;;14.50;13.00;;;;;16.43;61.19;100186.63;5060130;28;46330;-75
2022/12/06 10:16:44;;;;;;;;;13.50;12.75;;;;;16.50;60.91;100187.50;5059491;28;45333;-73
2022/12/06 10:19:40;;;;;;;;;6.33;6.00;;;;;16.52;60.78;100182.22;5059448;28;45386;-76
2022/12/06 10:22:37;;;;;;;;;8.00;6.00;;;;;16.42;60.44;100182.22;5060187;28;45314;-73
2022/12/06 10:25:18;;;;;;;;;6.00;6.00;;;;;16.41;60.23;100192.75;5059326;28;45299;-75
2022/12/06 10:28:08;;;;;;;;;9.67;9.67;;;;;16.39;60.40;100191.88;5059516;28;45369;-75
2022/12/06 10:30:57;;;;;;;;;5.00;5.00;;;;;16.40;60.14;100183.97;5059913;28;45253;-74
2022/12/06 10:33:36;;;;;;;;;4.00;4.00;;;;;16.40;60.27;100178.69;5059037;28;45556;-74
2022/12/06 10:36:05;;;;;;;;;5.67;5.67;;;;;16.26;60.42;100143.56;5059257;28;45466;-74
2022/12/06 10:38:33;;;;;;;;;7.67;7.33;;;;;16.53;60.36;100184.84;5059170;28;45455;-69
2022/12/06 10:41:20;;;;;;;;;16.33;13.00;;;;;16.52;60.64;100169.91;5059498;28;45369;-74
2022/12/06 10:44:06;;;;;;;;;12.33;11.67;;;;;16.61;60.49;100172.56;5059351;28;45523;-74
2022/12/06 10:47:02;;;;;;;;;9.67;8.33;;;;;16.64;60.03;100183.09;5058776;28;45483;-73
2022/12/06 10:49:49;;;;;;;;;6.00;6.00;;;;;16.63;60.43;100172.53;5059217;28;45342;-75
2022/12/06 10:52:23;;;;;;;;;7.00;7.00;;;;;16.63;59.98;100178.72;5059260;28;45302;-73
2022/12/06 10:55:01;;;;;;;;;9.33;9.33;;;;;16.61;60.28;100172.56;5058237;28;45314;-72
2022/12/06 10:58:05;;;;;;;;;5.00;5.00;;;;;16.56;59.83;100169.03;5057977;28;46109;-69
2022/12/06 11:00:38;;;;;;;;;8.33;8.33;;;;;16.55;59.90;100171.66;5057343;28;45306;-73
2022/12/06 11:03:07;;;;;;;;;14.33;14.33;;;;;16.50;60.21;100169.91;5058675;28;45262;-73
2022/12/06 11:05:35;;;;;;;;;12.67;11.67;;;;;16.50;60.34;100172.53;5057775;28;45398;-74
2022/12/06 11:08:13;;;;;;;;;10.00;10.00;;;;;16.56;60.43;100170.78;5057680;28;45417;-73
2022/12/06 11:10:43;;;;;;;;;18.75;17.75;;;;;16.59;60.54;100169.03;5057896;28;45496;-70
2022/12/06 11:13:37;;;;;;;;;24.50;23.50;;;;;16.55;60.43;100159.34;5058381;28;45373;-69
2022/12/06 11:16:10;;;;;;;;;42.25;35.00;;;;;16.48;60.22;100144.44;5056850;28;45820;-75
2022/12/06 11:18:37;;;;;;;;;11.00;10.67;;;;;16.65;60.03;100169.03;5058206;28;46133;-75
2022/12/06 11:21:14;;;;;;;;;38.00;33.25;;;;;16.34;60.78;100128.63;5057548;28;45311;-76
2022/12/06 11:24:15;;;;;;;;;23.75;23.75;;;;;16.48;61.12;100160.25;5057858;28;45345;-70
2022/12/06 11:27:14;;;;;;;;;20.00;19.00;;;;;16.37;61.37;100157.59;5057749;28;45499;-74
2022/12/06 11:29:41;;;;;;;;;14.50;13.50;;;;;16.29;61.27;100156.72;5057188;28;46073;-71
2022/12/06 11:32:11;;;;;;;;;17.00;17.00;;;;;16.22;61.70;100154.97;5057661;28;45535;-73
2022/12/06 11:34:46;;;;;;;;;34.50;30.00;;;;;16.26;62.48;100149.69;5057618;28;45371;-75
2022/12/06 11:37:16;;;;;;;;;46.50;37.50;;;;;16.45;62.09;100149.69;5057218;28;45538;-74
2022/12/06 11:39:43;;;;;;;;;15.00;14.75;;;;;16.43;61.04;100109.25;5057071;28;45327;-74
2022/12/06 11:42:12;;;;;;;;;28.00;26.00;;;;;16.74;61.11;100133.84;5057212;28;45558;-73
2022/12/06 11:44:42;;;;;;;;;5.00;4.67;;;;;16.83;60.56;100139.16;5057544;28;45453;-75
2022/12/06 11:47:15;;;;;;;;;9.00;7.33;;;;;16.82;59.50;100128.59;5057544;28;45222;-74
2022/12/06 11:49:43;;;;;;;;;6.00;5.00;;;;;16.90;59.27;100142.63;5056747;28;45257;-72
2022/12/06 11:52:18;;;;;;;;;8.33;7.33;;;;;16.96;59.63;100145.25;5009219;28;1362885;-69
2022/12/06 11:55:04;;;;;;;;;6.67;6.67;;;;;17.07;59.06;100137.31;5058237;28;45526;-69
2022/12/06 11:57:39;;;;;;;;;5.00;5.00;;;;;16.35;59.22;100016.13;5058354;28;45428;-69